createdAt,value
2022-10-23T00:00:25.025Z,13.22
2022-10-23T00:03:17.747Z,13.20
2022-10-23T00:05:49.438Z,13.14
2022-10-23T00:08:19.793Z,13.13
2022-10-23T00:10:50.013Z,13.21
2022-10-23T00:13:18.960Z,13.23
2022-10-23T00:15:48.304Z,13.17
2022-10-23T00:18:19.157Z,13.14
2022-10-23T00:20:49.175Z,13.16
2022-10-23T00:23:18.247Z,13.12
2022-10-23T00:25:48.703Z,13.10
2022-10-23T00:28:18.702Z,13.15
2022-10-23T00:30:50.385Z,13.17
2022-10-23T00:33:19.818Z,13.13
2022-10-23T00:35:50.272Z,13.15
2022-10-23T00:38:23.061Z,13.17
2022-10-23T00:40:53.203Z,13.15
2022-10-23T00:43:27.675Z,13.14
2022-10-23T00:46:00.832Z,13.11
2022-10-23T00:48:33.154Z,13.08
2022-10-23T00:51:05.870Z,13.03
2022-10-23T00:53:39.789Z,12.99
2022-10-23T00:56:11.033Z,12.96
2022-10-23T00:58:44.222Z,12.93
2022-10-23T01:01:22.837Z,12.91
2022-10-23T01:03:52.784Z,12.88
2022-10-23T01:06:38.324Z,12.85
2022-10-23T01:09:18.421Z,12.82
2022-10-23T01:12:02.358Z,12.81
2022-10-23T01:14:52.644Z,12.79
2022-10-23T01:18:01.922Z,12.76
2022-10-23T01:20:46.037Z,12.73
2022-10-23T01:23:54.379Z,12.70
2022-10-23T01:26:55.868Z,12.69
2022-10-23T01:29:36.060Z,12.64
2022-10-23T01:32:11.727Z,12.61
2022-10-23T01:34:49.385Z,12.57
2022-10-23T01:37:24.914Z,12.55
2022-10-23T01:39:59.930Z,12.56
2022-10-23T01:42:36.149Z,12.54
2022-10-23T01:45:13.032Z,12.54
2022-10-23T01:47:46.434Z,12.55
2022-10-23T01:50:21.686Z,12.55
2022-10-23T01:52:55.217Z,12.53
2022-10-23T01:55:27.586Z,12.50
2022-10-23T01:58:03.157Z,12.46
2022-10-23T02:00:41.939Z,12.44
2022-10-23T02:03:16.274Z,12.42
2022-10-23T02:05:47.481Z,12.43
2022-10-23T02:08:16.741Z,12.46
2022-10-23T02:10:55.492Z,12.47
2022-10-23T02:13:39.963Z,12.53
2022-10-23T02:16:40.388Z,12.54
2022-10-23T02:19:28.069Z,12.52
2022-10-23T02:22:14.823Z,12.50
2022-10-23T02:24:53.547Z,12.49
2022-10-23T02:27:35.085Z,12.50
2022-10-23T02:30:10.160Z,12.51
2022-10-23T02:32:45.541Z,12.52
2022-10-23T02:35:16.580Z,12.51
2022-10-23T02:37:56.423Z,12.52
2022-10-23T02:40:36.696Z,12.54
2022-10-23T02:43:36.247Z,12.54
2022-10-23T02:46:26.454Z,12.52
2022-10-23T02:49:15.346Z,12.48
2022-10-23T02:52:09.372Z,12.43
2022-10-23T02:54:45.652Z,12.41
2022-10-23T02:57:20.736Z,12.40
2022-10-23T03:00:18.775Z,12.41
2022-10-23T03:03:13.979Z,12.42
2022-10-23T03:05:47.300Z,12.43
2022-10-23T03:08:17.594Z,12.45
2022-10-23T03:13:19.958Z,12.44
2022-10-23T03:15:49.751Z,12.43
2022-10-23T03:18:20.566Z,12.42
2022-10-23T03:20:51.647Z,12.41
2022-10-23T03:23:23.274Z,12.40
2022-10-23T03:25:53.146Z,12.40
2022-10-23T03:28:43.511Z,12.44
2022-10-23T03:31:14.214Z,12.45
2022-10-23T03:33:43.860Z,12.45
2022-10-23T03:36:16.323Z,12.42
2022-10-23T03:38:46.062Z,12.42
2022-10-23T03:41:16.388Z,12.43
2022-10-23T03:43:45.672Z,12.41
2022-10-23T03:46:16.120Z,12.39
2022-10-23T03:48:45.806Z,12.38
2022-10-23T03:51:14.871Z,12.37
2022-10-23T03:53:44.760Z,12.38
2022-10-23T03:56:14.562Z,12.40
2022-10-23T03:58:45.488Z,12.41
2022-10-23T04:01:40.923Z,12.42
2022-10-23T04:04:14.701Z,12.41
2022-10-23T04:06:47.346Z,12.43
2022-10-23T04:09:21.119Z,12.44
2022-10-23T04:11:51.071Z,12.43
2022-10-23T04:14:23.722Z,12.42
2022-10-23T04:16:58.379Z,12.41
2022-10-23T04:19:29.895Z,12.40
2022-10-23T04:22:00.327Z,12.41
2022-10-23T04:24:30.772Z,12.40
2022-10-23T04:27:00.492Z,12.38
2022-10-23T04:29:33.835Z,12.38
2022-10-23T04:32:07.481Z,12.37
2022-10-23T04:34:39.119Z,12.34
2022-10-23T04:37:11.100Z,12.32
2022-10-23T04:39:43.645Z,12.30
2022-10-23T04:42:17.497Z,12.28
2022-10-23T04:44:47.798Z,12.29
2022-10-23T04:47:17.860Z,12.26
2022-10-23T04:49:58.294Z,12.21
2022-10-23T04:52:49.977Z,12.17
2022-10-23T04:55:38.582Z,12.15
2022-10-23T04:58:24.042Z,12.14
2022-10-23T05:00:54.790Z,12.14
2022-10-23T05:03:28.979Z,12.15
2022-10-23T05:05:58.959Z,12.19
2022-10-23T05:08:43.069Z,12.21
2022-10-23T05:11:31.438Z,12.23
2022-10-23T05:14:00.451Z,12.23
2022-10-23T05:16:39.355Z,12.24
2022-10-23T05:19:11.424Z,12.26
2022-10-23T05:21:44.871Z,12.30
2022-10-23T05:24:15.797Z,12.35
2022-10-23T05:26:54.664Z,12.38
2022-10-23T05:29:23.519Z,12.40
2022-10-23T05:32:17.618Z,12.42
2022-10-23T05:34:47.637Z,12.43
2022-10-23T05:37:18.741Z,12.44
2022-10-23T05:39:50.935Z,12.43
2022-10-23T05:42:20.990Z,12.41
2022-10-23T05:44:51.505Z,12.41
2022-10-23T05:47:45.035Z,12.42
2022-10-23T05:50:28.149Z,12.44
2022-10-23T05:53:16.775Z,12.46
2022-10-23T05:55:52.868Z,12.45
2022-10-23T05:58:54.807Z,12.48
2022-10-23T06:01:47.419Z,12.51
2022-10-23T06:04:22.202Z,12.54
2022-10-23T06:07:04.757Z,12.57
2022-10-23T06:09:33.498Z,12.59
2022-10-23T06:12:03.808Z,12.61
2022-10-23T06:14:35.999Z,12.62
2022-10-23T06:17:30.644Z,12.62
2022-10-23T06:20:02.935Z,12.65
2022-10-23T06:22:35.879Z,12.68
2022-10-23T06:25:18.644Z,12.70
2022-10-23T06:34:52.805Z,12.74
2022-10-23T06:37:22.621Z,12.75
2022-10-23T06:40:15.005Z,12.73
2022-10-23T06:46:33.207Z,12.73
2022-10-23T06:49:20.578Z,12.71
2022-10-23T06:51:51.197Z,12.73
2022-10-23T06:54:23.185Z,12.75
2022-10-23T06:56:54.143Z,12.76
2022-10-23T06:59:35.534Z,12.74
2022-10-23T07:02:09.810Z,12.71
2022-10-23T07:04:40.181Z,12.70
2022-10-23T07:07:22.479Z,12.70
2022-10-23T07:09:53.118Z,12.72
2022-10-23T07:12:30.006Z,12.72
2022-10-23T07:15:17.797Z,12.75
2022-10-23T07:17:48.310Z,12.80
2022-10-23T07:20:17.529Z,12.81
2022-10-23T07:22:56.690Z,12.80
2022-10-23T07:25:41.713Z,12.81
2022-10-23T07:28:11.095Z,12.83
2022-10-23T07:30:41.721Z,12.85
2022-10-23T07:33:15.281Z,12.82
2022-10-23T07:35:58.014Z,12.79
2022-10-23T07:38:30.332Z,12.79
2022-10-23T07:41:00.640Z,12.79
2022-10-23T07:46:02.156Z,12.77
2022-10-23T07:48:38.884Z,12.77
2022-10-23T07:51:13.425Z,12.77
2022-10-23T07:53:48.839Z,12.81
2022-10-23T07:56:37.991Z,12.81
2022-10-23T07:59:19.791Z,12.80
2022-10-23T08:06:11.813Z,12.76
2022-10-23T08:08:40.855Z,12.76
2022-10-23T08:11:14.865Z,12.75
2022-10-23T08:13:51.591Z,12.74
2022-10-23T08:16:24.228Z,12.76
2022-10-23T08:19:07.192Z,12.80
2022-10-23T08:21:37.410Z,12.86
2022-10-23T08:24:06.909Z,12.89
2022-10-23T08:26:36.826Z,12.87
2022-10-23T08:29:06.510Z,12.82
2022-10-23T08:31:35.408Z,12.78
2022-10-23T08:34:24.564Z,12.80
2022-10-23T08:36:57.763Z,12.81
2022-10-23T08:39:28.734Z,12.81
2022-10-23T08:42:25.837Z,12.82
2022-10-23T08:45:07.240Z,12.86
2022-10-23T08:47:43.349Z,12.92
2022-10-23T08:50:39.866Z,12.97
2022-10-23T08:54:03.379Z,13.02
2022-10-23T08:56:38.040Z,13.05
2022-10-23T08:59:29.268Z,13.06
2022-10-23T09:02:12.045Z,13.05
2022-10-23T09:04:44.827Z,13.08
2022-10-23T09:07:37.212Z,13.09
2022-10-23T09:10:25.966Z,13.16
2022-10-23T09:13:01.466Z,13.16
2022-10-23T09:15:41.923Z,13.15
2022-10-23T09:18:17.750Z,13.16
2022-10-23T09:20:48.020Z,13.20
2022-10-23T09:23:23.085Z,13.19
2022-10-23T09:25:57.324Z,13.19
2022-10-23T09:28:36.960Z,13.20
2022-10-23T09:31:10.716Z,13.25
2022-10-23T09:33:41.707Z,13.26
2022-10-23T09:36:14.336Z,13.29
2022-10-23T09:38:45.749Z,13.28
2022-10-23T09:41:38.588Z,13.29
2022-10-23T09:44:31.742Z,13.33
2022-10-23T09:47:12.526Z,13.34
2022-10-23T09:49:49.096Z,13.37
2022-10-23T09:52:18.352Z,13.40
2022-10-23T09:55:04.058Z,13.41
2022-10-23T09:57:38.818Z,13.42
2022-10-23T10:00:22.079Z,13.44
2022-10-23T10:03:01.626Z,13.46
2022-10-23T10:05:44.957Z,13.46
2022-10-23T10:08:42.307Z,13.50
2022-10-23T10:11:20.946Z,13.52
2022-10-23T10:14:05.479Z,13.55
2022-10-23T10:16:54.816Z,13.58
2022-10-23T10:19:35.674Z,13.64
2022-10-23T10:22:40.989Z,13.65
2022-10-23T10:25:52.386Z,13.71
2022-10-23T10:28:30.142Z,13.77
2022-10-23T10:31:23.323Z,13.83
2022-10-23T10:34:43.064Z,13.91
2022-10-23T10:37:56.459Z,14.03
2022-10-23T10:40:38.995Z,14.06
2022-10-23T10:43:45.944Z,14.11
2022-10-23T10:46:22.831Z,14.20
2022-10-23T10:49:29.303Z,14.21
2022-10-23T10:55:36.379Z,14.18
2022-10-23T10:58:33.904Z,14.16
2022-10-23T11:01:27.024Z,14.17
2022-10-23T11:04:14.565Z,14.17
2022-10-23T11:06:47.455Z,14.19
2022-10-23T11:09:27.839Z,14.18
2022-10-23T11:11:56.686Z,14.18
2022-10-23T11:14:30.467Z,14.15
2022-10-23T11:17:15.318Z,14.10
2022-10-23T11:20:26.498Z,14.06
2022-10-23T11:23:24.943Z,13.96
2022-10-23T11:26:26.161Z,13.86
2022-10-23T11:29:27.216Z,13.78
2022-10-23T11:32:45.518Z,13.74
2022-10-23T11:35:50.541Z,13.70
2022-10-23T11:38:27.130Z,13.69
2022-10-23T11:41:00.749Z,13.68
2022-10-23T11:43:37.387Z,13.69
2022-10-23T11:46:39.571Z,13.75
2022-10-23T11:49:22.900Z,13.82
2022-10-23T11:52:23.151Z,13.86
2022-10-23T12:15:19.452Z,13.97
2022-10-23T13:31:12.433Z,14.31
2022-10-23T13:33:45.968Z,14.37
2022-10-23T13:36:22.590Z,14.41
2022-10-23T13:38:59.203Z,14.40
2022-10-23T13:57:59.478Z,14.93
2022-10-23T14:00:28.711Z,14.97
2022-10-23T14:03:00.065Z,15.00
2022-10-23T14:15:22.882Z,14.75
2022-10-23T14:27:50.113Z,14.44
2022-10-23T14:40:38.026Z,14.37
2022-10-23T14:43:07.428Z,14.34
2022-10-23T14:45:38.016Z,14.32
2022-10-23T14:48:07.736Z,14.32
2022-10-23T15:03:58.053Z,14.37
2022-10-23T15:06:27.806Z,14.32
2022-10-23T15:08:58.185Z,14.23
2022-10-23T15:11:29.434Z,14.16
2022-10-23T15:34:28.884Z,13.15
2022-10-23T15:37:01.325Z,13.07
2022-10-23T15:39:34.669Z,13.03
2022-10-23T15:42:07.413Z,13.00
2022-10-23T15:44:40.051Z,13.00
2022-10-23T15:47:11.317Z,12.99
2022-10-23T15:49:45.491Z,12.95
2022-10-23T15:52:15.051Z,12.90
2022-10-23T15:54:46.700Z,12.84
2022-10-23T15:57:16.984Z,12.79
2022-10-23T15:59:46.252Z,12.75
2022-10-23T16:02:40.738Z,12.74
2022-10-23T16:05:13.700Z,12.63
2022-10-23T16:07:45.369Z,12.59
2022-10-23T16:10:14.151Z,12.58
2022-10-23T16:12:46.806Z,12.58
2022-10-23T16:15:16.556Z,12.61
2022-10-23T16:17:46.807Z,12.66
2022-10-23T16:20:17.632Z,12.70
2022-10-23T16:22:49.141Z,12.71
2022-10-23T16:25:19.082Z,12.72
2022-10-23T16:27:48.853Z,12.74
2022-10-23T16:30:23.501Z,12.75
2022-10-23T16:32:53.301Z,12.76
2022-10-23T16:35:23.759Z,12.77
2022-10-23T16:38:02.830Z,12.77
2022-10-23T16:40:35.171Z,12.79
2022-10-23T16:43:22.712Z,12.78
2022-10-23T16:46:14.618Z,12.77
2022-10-23T16:48:47.939Z,12.76
2022-10-23T16:51:27.342Z,12.74
2022-10-23T16:53:59.708Z,12.70
2022-10-23T16:56:30.579Z,12.65
2022-10-23T16:59:06.076Z,12.60
2022-10-23T17:01:37.183Z,12.55
2022-10-23T17:04:12.641Z,12.49
2022-10-23T17:06:47.553Z,12.45
2022-10-23T17:09:20.077Z,12.39
2022-10-23T17:11:52.061Z,12.34
2022-10-23T17:14:26.029Z,12.26
2022-10-23T17:17:02.638Z,12.18
2022-10-23T17:19:50.545Z,12.14
2022-10-23T17:22:21.953Z,12.08
2022-10-23T17:24:54.526Z,12.05
2022-10-23T17:27:29.710Z,12.04
2022-10-23T17:30:01.859Z,12.03
2022-10-23T17:32:32.230Z,12.03
2022-10-23T17:35:06.420Z,12.03
2022-10-23T17:37:37.627Z,12.04
2022-10-23T17:40:11.489Z,12.04
2022-10-23T17:42:43.456Z,12.07
2022-10-23T17:45:17.822Z,12.08
2022-10-23T17:47:48.091Z,12.09
2022-10-23T17:50:19.201Z,12.10
2022-10-23T17:52:53.274Z,12.10
2022-10-23T17:55:23.359Z,12.10
2022-10-23T17:57:55.071Z,12.10
2022-10-23T18:00:25.952Z,12.10
2022-10-23T18:03:00.643Z,12.09
2022-10-23T18:05:35.945Z,12.08
2022-10-23T18:08:07.563Z,12.10
2022-10-23T18:10:37.916Z,12.10
2022-10-23T18:13:07.757Z,12.10
2022-10-23T18:15:40.874Z,12.06
2022-10-23T18:18:10.983Z,12.04
2022-10-23T18:20:44.334Z,12.01
2022-10-23T18:23:14.466Z,11.95
2022-10-23T18:25:46.534Z,11.90
2022-10-23T18:28:17.121Z,11.85
2022-10-23T18:30:52.189Z,11.82
2022-10-23T18:33:26.063Z,11.79
2022-10-23T18:36:00.046Z,11.77
2022-10-23T18:38:33.184Z,11.75
2022-10-23T18:41:03.493Z,11.72
2022-10-23T18:43:49.154Z,11.73
2022-10-23T18:46:24.914Z,11.73
2022-10-23T18:48:55.067Z,11.72
2022-10-23T18:51:33.025Z,11.70
2022-10-23T18:54:10.576Z,11.70
2022-10-23T18:56:42.139Z,11.69
2022-10-23T18:59:15.446Z,11.69
2022-10-23T19:01:47.615Z,11.69
2022-10-23T19:04:20.891Z,11.69
2022-10-23T19:06:53.435Z,11.67
2022-10-23T19:09:26.632Z,11.67
2022-10-23T19:11:56.846Z,11.68
2022-10-23T19:14:31.345Z,11.67
2022-10-23T19:17:18.489Z,11.64
2022-10-23T19:19:53.223Z,11.64
2022-10-23T19:22:24.993Z,11.65
2022-10-23T19:25:06.074Z,11.63
2022-10-23T19:27:39.281Z,11.62
2022-10-23T19:30:19.328Z,11.60
2022-10-23T19:32:52.912Z,11.60
2022-10-23T19:35:24.384Z,11.61
2022-10-23T19:37:58.543Z,11.60
2022-10-23T19:40:31.164Z,11.59
2022-10-23T19:43:01.352Z,11.59
2022-10-23T19:48:11.106Z,11.58
2022-10-23T19:50:45.270Z,11.57
2022-10-23T19:53:20.732Z,11.55
2022-10-23T19:55:50.825Z,11.55
2022-10-23T19:58:22.221Z,11.55
2022-10-23T20:00:53.623Z,11.56
2022-10-23T20:03:27.624Z,11.58
2022-10-23T20:05:57.515Z,11.56
2022-10-23T20:08:34.202Z,11.54
2022-10-23T20:11:10.896Z,11.52
2022-10-23T20:13:45.517Z,11.53
2022-10-23T20:16:29.478Z,11.53
2022-10-23T20:19:00.113Z,11.54
2022-10-23T20:21:30.722Z,11.54
2022-10-23T20:24:04.557Z,11.53
2022-10-23T20:26:37.141Z,11.53
2022-10-23T20:29:09.407Z,11.53
2022-10-23T20:31:43.823Z,11.54
2022-10-23T20:34:16.638Z,11.56
2022-10-23T20:36:53.210Z,11.57
2022-10-23T20:39:26.578Z,11.61
2022-10-23T20:42:01.285Z,11.64
2022-10-23T20:44:31.671Z,11.66
2022-10-23T20:47:04.494Z,11.64
2022-10-23T20:49:36.368Z,11.63
2022-10-23T20:52:06.817Z,11.64
2022-10-23T20:54:36.787Z,11.65
2022-10-23T20:57:09.039Z,11.66
2022-10-23T20:59:38.862Z,11.66
2022-10-23T21:02:15.593Z,11.66
2022-10-23T21:04:46.638Z,11.65
2022-10-23T21:07:17.128Z,11.65
2022-10-23T21:09:46.649Z,11.65
2022-10-23T21:12:17.513Z,11.63
2022-10-23T21:14:47.834Z,11.60
2022-10-23T21:17:18.730Z,11.58
2022-10-23T21:19:51.246Z,11.53
2022-10-23T21:22:20.308Z,11.48
2022-10-23T21:24:50.660Z,11.44
2022-10-23T21:27:20.228Z,11.41
2022-10-23T21:29:50.524Z,11.37
2022-10-23T21:32:20.675Z,11.35
2022-10-23T21:34:50.976Z,11.35
2022-10-23T21:37:21.232Z,11.34
2022-10-23T21:39:52.506Z,11.34
2022-10-23T21:42:22.106Z,11.34
2022-10-23T21:44:53.564Z,11.35
2022-10-23T21:47:22.603Z,11.33
2022-10-23T21:49:54.290Z,11.31
2022-10-23T21:52:24.848Z,11.28
2022-10-23T21:54:54.732Z,11.26
2022-10-23T21:57:23.602Z,11.24
2022-10-23T21:59:57.293Z,11.25
2022-10-23T22:02:32.200Z,11.25
2022-10-23T22:05:03.564Z,11.26
2022-10-23T22:07:35.428Z,11.28
2022-10-23T22:10:07.162Z,11.26
2022-10-23T22:12:36.013Z,11.23
2022-10-23T22:15:07.413Z,11.21
2022-10-23T22:17:38.594Z,11.17
2022-10-23T22:20:09.847Z,11.11
2022-10-23T22:22:39.756Z,11.04
2022-10-23T22:25:09.365Z,10.96
2022-10-23T22:27:41.041Z,10.91
2022-10-23T22:30:10.180Z,10.84
2022-10-23T22:32:38.890Z,10.81
2022-10-23T22:35:12.336Z,10.79
2022-10-23T22:37:41.665Z,10.80
2022-10-23T22:40:11.736Z,10.77
2022-10-23T22:42:41.643Z,10.74
2022-10-23T22:45:11.389Z,10.71
2022-10-23T22:47:41.963Z,10.67
2022-10-23T22:50:15.422Z,10.62
2022-10-23T22:52:45.039Z,10.57
2022-10-23T22:55:16.581Z,10.55
2022-10-23T22:57:45.567Z,10.54
2022-10-23T23:00:17.100Z,10.54
2022-10-23T23:02:48.254Z,10.53
2022-10-23T23:05:18.382Z,10.52
2022-10-23T23:07:48.248Z,10.50
2022-10-23T23:10:20.339Z,10.49
2022-10-23T23:12:53.964Z,10.50
2022-10-23T23:15:24.163Z,10.47
2022-10-23T23:17:57.419Z,10.45
2022-10-23T23:20:30.077Z,10.43
2022-10-23T23:23:00.716Z,10.42
2022-10-23T23:25:30.167Z,10.41
2022-10-23T23:28:01.858Z,10.40
2022-10-23T23:30:31.983Z,10.41
2022-10-23T23:33:02.105Z,10.41
2022-10-23T23:35:32.667Z,10.41
2022-10-23T23:38:02.249Z,10.40
2022-10-23T23:40:31.010Z,10.40
2022-10-23T23:43:01.866Z,10.39
2022-10-23T23:45:32.372Z,10.39
2022-10-23T23:48:03.222Z,10.41
2022-10-23T23:50:33.418Z,10.41
2022-10-23T23:53:03.747Z,10.42
2022-10-23T23:55:34.239Z,10.42
2022-10-23T23:58:04.571Z,10.41
